createdAt,value
2022-09-06T00:00:16.754Z,20.73
2022-09-06T00:01:33.163Z,20.74
2022-09-06T00:02:49.889Z,20.83
2022-09-06T00:04:06.282Z,20.86
2022-09-06T00:05:22.681Z,20.93
2022-09-06T00:06:39.103Z,20.97
2022-09-06T00:07:55.513Z,21.00
2022-09-06T00:09:13.074Z,21.00
2022-09-06T00:10:29.476Z,21.01
2022-09-06T00:11:47.886Z,21.03
2022-09-06T00:13:04.267Z,21.07
2022-09-06T00:14:22.596Z,21.07
2022-09-06T00:15:39.290Z,21.10
2022-09-06T00:16:55.706Z,21.11
2022-09-06T00:18:12.078Z,21.13
2022-09-06T00:19:28.448Z,21.16
2022-09-06T00:20:44.828Z,21.16
2022-09-06T00:22:03.206Z,21.16
2022-09-06T00:23:19.590Z,21.19
2022-09-06T00:24:35.970Z,21.19
2022-09-06T00:25:52.342Z,21.19
2022-09-06T00:27:11.478Z,21.19
2022-09-06T00:28:27.986Z,21.18
2022-09-06T00:29:44.392Z,21.19
2022-09-06T00:31:02.764Z,21.20
2022-09-06T00:32:19.144Z,21.19
2022-09-06T00:33:35.814Z,21.20
2022-09-06T00:34:52.184Z,21.22
2022-09-06T00:36:08.584Z,21.20
2022-09-06T00:37:25.036Z,21.23
2022-09-06T00:38:42.378Z,21.22
2022-09-06T00:39:59.097Z,21.26
2022-09-06T00:41:15.486Z,21.29
2022-09-06T00:42:31.898Z,21.30
2022-09-06T00:43:48.277Z,21.34
2022-09-06T00:45:04.648Z,21.34
2022-09-06T00:46:21.077Z,21.34
2022-09-06T00:47:37.530Z,21.34
2022-09-06T00:48:53.919Z,21.34
2022-09-06T00:50:10.291Z,21.32
2022-09-06T00:51:26.684Z,21.34
2022-09-06T00:52:43.433Z,21.34
2022-09-06T00:53:59.831Z,21.35
2022-09-06T00:55:16.208Z,21.35
2022-09-06T00:56:32.622Z,21.35
2022-09-06T00:57:49.012Z,21.35
2022-09-06T00:59:05.674Z,21.34
2022-09-06T01:00:22.057Z,21.34
2022-09-06T01:01:38.626Z,21.34
2022-09-06T01:02:55.155Z,21.35
2022-09-06T01:04:11.595Z,21.30
2022-09-06T01:05:28.251Z,21.34
2022-09-06T01:06:46.587Z,21.34
2022-09-06T01:08:03.006Z,21.35
2022-09-06T01:09:19.411Z,21.34
2022-09-06T01:10:35.819Z,21.34
2022-09-06T01:11:52.469Z,21.34
2022-09-06T01:13:08.897Z,21.35
2022-09-06T01:14:25.419Z,21.37
2022-09-06T01:15:41.853Z,21.38
2022-09-06T01:16:58.229Z,21.37
2022-09-06T01:18:14.888Z,21.35
2022-09-06T01:19:31.312Z,21.40
2022-09-06T01:20:47.692Z,21.38
2022-09-06T01:22:04.081Z,21.38
2022-09-06T01:23:20.541Z,21.41
2022-09-06T01:24:37.210Z,21.41
2022-09-06T01:25:55.533Z,21.41
2022-09-06T01:27:11.924Z,21.44
2022-09-06T01:28:28.556Z,21.43
2022-09-06T01:29:44.995Z,21.44
2022-09-06T01:31:01.714Z,21.44
2022-09-06T01:32:18.182Z,21.44
2022-09-06T01:33:34.556Z,21.45
2022-09-06T01:34:50.947Z,21.44
2022-09-06T01:36:09.298Z,21.43
2022-09-06T01:37:25.998Z,21.44
2022-09-06T01:38:42.370Z,21.45
2022-09-06T01:40:00.782Z,21.48
2022-09-06T01:41:17.150Z,21.48
2022-09-06T01:42:33.603Z,21.48
2022-09-06T01:43:50.241Z,21.51
2022-09-06T01:45:06.630Z,21.51
2022-09-06T01:46:23.107Z,21.50
2022-09-06T01:47:39.531Z,21.51
2022-09-06T01:48:55.903Z,21.51
2022-09-06T01:50:14.535Z,21.55
2022-09-06T01:51:30.929Z,21.51
2022-09-06T01:52:49.294Z,21.48
2022-09-06T01:54:05.675Z,21.35
2022-09-06T01:55:22.074Z,21.32
2022-09-06T01:56:38.725Z,21.28
2022-09-06T01:57:55.145Z,21.25
2022-09-06T01:59:13.476Z,21.26
2022-09-06T02:00:29.876Z,21.28
2022-09-06T02:01:46.362Z,21.30
2022-09-06T02:03:03.038Z,21.29
2022-09-06T02:04:19.447Z,21.34
2022-09-06T02:05:35.840Z,21.34
2022-09-06T02:06:52.219Z,21.32
2022-09-06T02:08:08.663Z,21.35
2022-09-06T02:09:25.334Z,21.37
2022-09-06T02:10:42.681Z,21.38
2022-09-06T02:11:59.086Z,21.43
2022-09-06T02:13:15.515Z,21.44
2022-09-06T02:14:31.895Z,21.45
2022-09-06T02:15:48.617Z,21.48
2022-09-06T02:17:05.025Z,21.50
2022-09-06T02:18:21.579Z,21.55
2022-09-06T02:19:39.956Z,21.59
2022-09-06T02:20:56.367Z,21.62
2022-09-06T02:22:13.027Z,21.67
2022-09-06T02:23:29.448Z,21.73
2022-09-06T02:24:45.859Z,21.73
2022-09-06T02:26:02.259Z,21.78
2022-09-06T02:27:18.637Z,21.78
2022-09-06T02:28:35.371Z,21.81
2022-09-06T02:29:51.761Z,21.84
2022-09-06T02:31:10.167Z,21.90
2022-09-06T02:32:27.535Z,21.90
2022-09-06T02:33:44.015Z,21.90
2022-09-06T02:35:00.698Z,21.90
2022-09-06T02:36:17.094Z,21.94
2022-09-06T02:37:33.474Z,21.98
2022-09-06T02:38:49.905Z,22.00
2022-09-06T02:40:08.307Z,22.03
2022-09-06T02:41:24.975Z,22.06
2022-09-06T02:42:41.356Z,22.11
2022-09-06T02:43:57.775Z,22.11
2022-09-06T02:45:14.144Z,22.12
2022-09-06T02:46:32.534Z,22.12
2022-09-06T02:47:49.236Z,22.13
2022-09-06T02:49:05.676Z,22.11
2022-09-06T02:50:22.096Z,22.11
2022-09-06T02:51:38.486Z,22.11
2022-09-06T02:52:54.868Z,22.11
2022-09-06T02:54:11.573Z,22.12
2022-09-06T02:55:27.965Z,22.09
2022-09-06T02:56:45.542Z,22.11
2022-09-06T02:58:04.299Z,22.06
2022-09-06T02:59:20.759Z,22.04
2022-09-06T03:00:39.400Z,22.06
2022-09-06T03:01:55.857Z,22.07
2022-09-06T03:03:12.245Z,22.06
2022-09-06T03:04:28.642Z,22.04
2022-09-06T03:05:46.998Z,22.01
2022-09-06T03:07:05.631Z,22.00
2022-09-06T03:08:22.068Z,22.01
2022-09-06T03:09:38.402Z,22.01
2022-09-06T03:10:54.805Z,22.00
2022-09-06T03:12:11.215Z,22.01
2022-09-06T03:13:27.876Z,22.00
2022-09-06T03:14:44.256Z,22.03
2022-09-06T03:16:00.666Z,22.04
2022-09-06T03:17:17.078Z,22.04
2022-09-06T03:18:35.438Z,22.01
2022-09-06T03:19:52.107Z,22.04
2022-09-06T03:21:08.529Z,22.00
2022-09-06T03:22:26.868Z,22.01
2022-09-06T03:23:43.279Z,22.01
2022-09-06T03:24:59.672Z,22.03
2022-09-06T03:26:18.310Z,21.98
2022-09-06T03:27:34.692Z,21.98
2022-09-06T03:28:51.091Z,22.00
2022-09-06T03:30:07.472Z,21.97
2022-09-06T03:31:25.893Z,22.00
2022-09-06T03:32:42.542Z,21.94
2022-09-06T03:33:58.923Z,21.98
2022-09-06T03:35:17.313Z,21.98
2022-09-06T03:36:33.715Z,21.96
2022-09-06T03:37:50.113Z,21.97
2022-09-06T03:39:06.800Z,21.96
2022-09-06T03:40:23.170Z,21.97
2022-09-06T03:41:39.606Z,22.00
2022-09-06T03:42:57.936Z,22.01
2022-09-06T03:44:14.384Z,22.03
2022-09-06T03:45:31.059Z,22.01
2022-09-06T03:46:49.422Z,22.00
2022-09-06T03:48:05.805Z,21.98
2022-09-06T03:49:22.189Z,22.01
2022-09-06T03:50:40.600Z,21.98
2022-09-06T03:51:57.291Z,21.94
2022-09-06T03:53:15.630Z,21.94
2022-09-06T03:54:32.052Z,21.96
2022-09-06T03:55:48.435Z,21.94
2022-09-06T03:57:04.842Z,21.93
2022-09-06T03:58:21.538Z,21.91
2022-09-06T03:59:39.904Z,21.90
2022-09-06T04:00:58.284Z,21.84
2022-09-06T04:02:14.727Z,21.81
2022-09-06T04:03:31.105Z,21.77
2022-09-06T04:04:47.826Z,21.71
2022-09-06T04:06:04.199Z,21.69
2022-09-06T04:07:22.527Z,21.69
2022-09-06T04:08:38.887Z,21.67
2022-09-06T04:09:55.331Z,21.69
2022-09-06T04:11:11.957Z,21.71
2022-09-06T04:12:28.328Z,21.71
2022-09-06T04:13:44.720Z,21.71
2022-09-06T04:15:03.059Z,21.74
2022-09-06T04:16:21.404Z,21.74
2022-09-06T04:17:38.056Z,21.71
2022-09-06T04:18:56.401Z,21.69
2022-09-06T04:20:14.741Z,21.67
2022-09-06T04:21:33.072Z,21.65
2022-09-06T04:22:49.492Z,21.62
2022-09-06T04:24:06.164Z,21.63
2022-09-06T04:25:22.544Z,21.62
2022-09-06T04:26:40.894Z,21.62
2022-09-06T04:27:59.274Z,21.59
2022-09-06T04:29:17.635Z,21.59
2022-09-06T04:30:36.258Z,21.60
2022-09-06T04:31:54.665Z,21.58
2022-09-06T04:33:13.067Z,21.58
2022-09-06T04:34:31.387Z,21.51
2022-09-06T04:35:49.748Z,21.50
2022-09-06T04:37:08.394Z,21.45
2022-09-06T04:38:26.255Z,21.47
2022-09-06T04:39:44.688Z,21.44
2022-09-06T04:41:03.059Z,21.48
2022-09-06T04:42:21.451Z,21.51
2022-09-06T04:43:38.127Z,21.47
2022-09-06T04:44:54.631Z,21.50
2022-09-06T04:46:13.110Z,21.43
2022-09-06T04:47:31.413Z,21.38
2022-09-06T04:48:49.836Z,21.37
2022-09-06T04:50:08.477Z,21.34
2022-09-06T04:51:26.825Z,21.34
2022-09-06T04:52:44.697Z,21.34
2022-09-06T04:54:03.045Z,21.35
2022-09-06T04:55:20.354Z,21.35
2022-09-06T04:56:39.095Z,21.40
2022-09-06T04:57:56.953Z,21.35
2022-09-06T04:59:14.826Z,21.35
2022-09-06T05:00:33.157Z,21.35
2022-09-06T05:01:51.069Z,21.34
2022-09-06T05:03:09.678Z,21.38
2022-09-06T05:04:27.024Z,21.37
2022-09-06T05:05:44.476Z,21.40
2022-09-06T05:07:02.336Z,21.41
2022-09-06T05:08:21.400Z,21.41
2022-09-06T05:11:31.287Z,21.38
2022-09-06T05:12:48.618Z,21.43
2022-09-06T05:14:06.098Z,21.41
2022-09-06T05:15:23.508Z,21.43
2022-09-06T05:16:40.962Z,21.41
2022-09-06T05:17:59.906Z,21.35
2022-09-06T05:19:17.832Z,21.38
2022-09-06T05:20:36.304Z,21.32
2022-09-06T05:21:53.982Z,21.30
2022-09-06T05:23:13.315Z,21.32
2022-09-06T05:24:30.634Z,21.34
2022-09-06T05:25:48.004Z,21.32
2022-09-06T05:27:05.396Z,21.34
2022-09-06T05:28:24.683Z,21.38
2022-09-06T05:29:44.158Z,21.37
2022-09-06T05:31:01.553Z,21.38
2022-09-06T05:32:19.034Z,21.38
2022-09-06T05:33:37.769Z,21.38
2022-09-06T05:34:56.100Z,21.38
2022-09-06T05:36:13.785Z,21.40
2022-09-06T05:37:32.167Z,21.37
2022-09-06T05:38:50.169Z,21.37
2022-09-06T05:40:07.838Z,21.37
2022-09-06T05:41:26.876Z,21.35
2022-09-06T05:42:48.389Z,21.35
2022-09-06T05:44:05.824Z,21.38
2022-09-06T05:45:24.794Z,21.37
2022-09-06T05:46:43.912Z,21.40
2022-09-06T05:48:02.788Z,21.40
2022-09-06T05:49:20.123Z,21.44
2022-09-06T05:50:38.002Z,21.41
2022-09-06T05:51:55.364Z,21.40
2022-09-06T05:53:14.174Z,21.41
2022-09-06T05:54:31.483Z,21.47
2022-09-06T05:55:48.896Z,21.44
2022-09-06T05:57:06.603Z,21.48
2022-09-06T05:58:25.490Z,21.45
2022-09-06T05:59:44.396Z,21.47
2022-09-06T06:01:05.133Z,21.51
2022-09-06T06:02:22.498Z,21.50
2022-09-06T06:03:39.796Z,21.50
2022-09-06T06:04:57.177Z,21.50
2022-09-06T06:06:14.567Z,21.50
2022-09-06T06:07:32.898Z,21.53
2022-09-06T06:08:51.021Z,21.53
2022-09-06T06:10:08.390Z,21.53
2022-09-06T06:11:26.722Z,21.56
2022-09-06T06:12:44.038Z,21.59
2022-09-06T06:14:02.430Z,21.60
2022-09-06T06:15:20.792Z,21.63
2022-09-06T06:16:39.701Z,21.65
2022-09-06T06:17:58.532Z,21.67
2022-09-06T06:19:15.930Z,21.69
2022-09-06T06:20:33.294Z,21.74
2022-09-06T06:21:50.651Z,21.74
2022-09-06T06:23:08.985Z,21.77
2022-09-06T06:26:17.191Z,21.84
2022-09-06T06:27:34.561Z,21.84
2022-09-06T06:28:53.917Z,21.90
2022-09-06T06:30:15.291Z,21.93
2022-09-06T06:31:34.595Z,21.97
2022-09-06T06:32:52.964Z,21.97
2022-09-06T06:34:12.312Z,21.94
2022-09-06T06:35:31.134Z,22.00
2022-09-06T06:36:50.084Z,22.07
2022-09-06T06:38:08.967Z,22.07
2022-09-06T06:39:27.864Z,22.09
2022-09-06T06:40:45.178Z,22.12
2022-09-06T06:42:02.865Z,22.15
2022-09-06T06:43:21.699Z,22.16
2022-09-06T06:44:39.069Z,22.22
2022-09-06T06:45:56.486Z,22.22
2022-09-06T06:47:13.849Z,22.25
2022-09-06T06:48:33.060Z,22.28
2022-09-06T06:49:51.910Z,22.34
2022-09-06T06:51:11.834Z,22.40
2022-09-06T06:52:30.171Z,22.49
2022-09-06T06:53:47.595Z,22.55
2022-09-06T06:55:04.932Z,22.61
2022-09-06T06:56:23.774Z,22.66
2022-09-06T06:57:42.644Z,22.76
2022-09-06T06:59:00.066Z,22.85
2022-09-06T07:00:17.758Z,22.91
2022-09-06T07:01:36.842Z,22.96
2022-09-06T07:02:55.745Z,23.08
2022-09-06T07:04:14.616Z,23.15
2022-09-06T07:08:19.218Z,23.48
2022-09-06T07:11:02.360Z,23.81
2022-09-06T07:12:22.529Z,23.91
2022-09-06T07:13:41.750Z,24.00
2022-09-06T07:15:00.640Z,24.08
2022-09-06T07:16:18.008Z,24.22
2022-09-06T07:17:36.840Z,24.34
2022-09-06T07:18:54.497Z,24.52
2022-09-06T07:21:38.050Z,24.75
2022-09-06T07:24:48.771Z,24.99
2022-09-06T07:26:12.574Z,25.08
2022-09-06T07:28:54.654Z,25.26
2022-09-06T07:30:13.909Z,25.34
2022-09-06T07:32:56.955Z,25.58
2022-09-06T07:34:22.557Z,25.78
2022-09-06T07:35:43.840Z,26.00
2022-09-06T07:37:05.480Z,26.08
2022-09-06T07:38:25.478Z,26.21
2022-09-06T07:39:44.427Z,26.34
2022-09-06T07:41:04.035Z,26.41
2022-09-06T07:42:23.378Z,26.51
2022-09-06T07:43:42.261Z,26.73
2022-09-06T07:45:01.492Z,26.88
2022-09-06T07:46:20.409Z,27.07
2022-09-06T07:48:59.946Z,27.41
2022-09-06T07:51:39.675Z,27.60
2022-09-06T07:54:30.840Z,27.75
2022-09-06T07:55:45.777Z,27.88
2022-09-06T07:58:53.724Z,28.09
2022-09-06T08:00:12.560Z,28.24
2022-09-06T08:01:31.097Z,28.40
2022-09-06T08:02:48.493Z,28.57
2022-09-06T08:04:06.613Z,28.69
2022-09-06T08:09:33.709Z,28.90
2022-09-06T08:10:51.646Z,29.03
2022-09-06T08:12:15.531Z,29.17
2022-09-06T08:15:34.094Z,29.56
2022-09-06T08:18:43.534Z,29.65
2022-09-06T08:20:01.896Z,29.73
2022-09-06T08:21:20.236Z,29.73
2022-09-06T08:22:38.593Z,29.86
2022-09-06T08:23:56.959Z,30.02
2022-09-06T08:25:14.321Z,30.18
2022-09-06T08:26:33.212Z,30.30
2022-09-06T08:27:52.371Z,30.45
2022-09-06T08:29:10.988Z,30.53
2022-09-06T08:30:29.835Z,30.46
2022-09-06T08:31:47.494Z,30.51
2022-09-06T08:33:07.005Z,30.53
2022-09-06T08:34:26.163Z,30.49
2022-09-06T08:35:45.055Z,30.60
2022-09-06T08:38:54.366Z,30.70
2022-09-06T08:40:19.824Z,30.74
2022-09-06T08:41:39.361Z,30.70
2022-09-06T08:42:58.791Z,30.71
2022-09-06T08:45:41.913Z,30.75
2022-09-06T08:47:00.311Z,30.90
2022-09-06T08:48:21.340Z,31.10
2022-09-06T08:49:40.445Z,31.10
2022-09-06T08:50:57.814Z,31.37
2022-09-06T08:52:15.175Z,31.57
2022-09-06T08:53:33.536Z,31.75
2022-09-06T08:54:50.926Z,31.91
2022-09-06T08:56:09.786Z,32.05
2022-09-06T08:57:29.688Z,32.09
2022-09-06T08:58:48.517Z,32.16
2022-09-06T09:00:07.697Z,32.13
2022-09-06T09:01:27.629Z,32.19
2022-09-06T09:02:50.909Z,32.46
2022-09-06T09:04:09.751Z,32.68
2022-09-06T09:05:34.044Z,32.92
2022-09-06T09:06:56.936Z,33.09
2022-09-06T09:08:16.303Z,33.41
2022-09-06T09:09:34.624Z,33.79
2022-09-06T09:10:54.094Z,34.08
2022-09-06T09:12:12.911Z,34.07
2022-09-06T09:13:32.687Z,34.13
2022-09-06T09:14:50.027Z,34.15
2022-09-06T09:16:09.787Z,34.41
2022-09-06T09:17:29.683Z,34.60
2022-09-06T09:18:49.878Z,34.79
2022-09-06T09:20:09.609Z,34.70
2022-09-06T09:21:30.706Z,34.75
2022-09-06T09:22:50.481Z,34.64
2022-09-06T09:24:09.910Z,34.41
2022-09-06T09:25:28.762Z,34.23
2022-09-06T09:26:46.122Z,34.19
2022-09-06T09:28:05.322Z,34.03
2022-09-06T09:29:28.732Z,34.01
2022-09-06T09:30:48.607Z,34.29
2022-09-06T09:32:07.644Z,34.32
2022-09-06T09:33:26.039Z,34.15
2022-09-06T09:34:45.146Z,34.03
2022-09-06T09:36:04.009Z,34.06
2022-09-06T09:38:45.614Z,34.45
2022-09-06T09:40:03.153Z,34.60
2022-09-06T09:41:20.920Z,34.40
2022-09-06T09:42:38.792Z,34.42
2022-09-06T09:43:56.212Z,34.59
2022-09-06T09:45:13.573Z,34.86
2022-09-06T09:46:30.988Z,34.97
2022-09-06T09:47:51.513Z,35.07
2022-09-06T09:49:08.944Z,35.24
2022-09-06T09:50:26.293Z,35.38
2022-09-06T09:51:45.175Z,35.48
2022-09-06T09:53:04.562Z,35.58
2022-09-06T09:54:24.226Z,35.54
2022-09-06T09:55:43.097Z,35.44
2022-09-06T09:57:00.463Z,35.35
2022-09-06T09:58:19.409Z,35.42
2022-09-06T09:59:37.653Z,35.39
2022-09-06T10:00:56.066Z,35.38
2022-09-06T10:02:15.846Z,35.47
2022-09-06T10:03:34.906Z,35.38
2022-09-06T10:04:54.291Z,35.41
2022-09-06T10:07:35.623Z,35.63
2022-09-06T10:08:52.975Z,35.83
2022-09-06T10:10:10.354Z,35.95
2022-09-06T10:11:28.743Z,36.04
2022-09-06T10:12:47.939Z,36.26
2022-09-06T10:14:07.333Z,36.40
2022-09-06T10:15:24.679Z,36.38
2022-09-06T10:16:42.010Z,36.36
2022-09-06T10:17:59.921Z,36.48
2022-09-06T10:22:59.097Z,36.41
2022-09-06T10:24:31.962Z,36.56
2022-09-06T10:25:38.813Z,36.74
2022-09-06T10:26:58.229Z,36.91
2022-09-06T10:28:17.211Z,37.12
2022-09-06T10:29:36.075Z,37.03
2022-09-06T10:30:53.493Z,36.94
2022-09-06T10:32:12.001Z,36.76
2022-09-06T10:33:31.376Z,36.74
2022-09-06T10:34:50.302Z,36.93
2022-09-06T10:36:09.705Z,37.05
2022-09-06T10:37:27.187Z,37.16
2022-09-06T10:38:46.065Z,37.01
2022-09-06T10:40:03.484Z,36.79
2022-09-06T10:41:22.367Z,36.69
2022-09-06T10:42:39.789Z,36.79
2022-09-06T10:43:57.230Z,36.79
2022-09-06T10:45:15.741Z,36.76
2022-09-06T10:46:33.348Z,36.76
2022-09-06T10:47:51.057Z,36.76
2022-09-06T10:49:08.976Z,36.89
2022-09-06T10:50:28.429Z,37.00
2022-09-06T10:51:48.164Z,36.94
2022-09-06T10:53:08.069Z,36.86
2022-09-06T10:54:27.489Z,36.82
2022-09-06T10:55:48.014Z,37.05
2022-09-06T10:59:56.848Z,37.20
2022-09-06T11:01:15.833Z,37.05
2022-09-06T11:02:33.764Z,37.20
2022-09-06T11:03:56.961Z,37.31
2022-09-06T11:06:44.971Z,37.22
2022-09-06T11:09:38.581Z,37.30
2022-09-06T11:11:02.040Z,37.34
2022-09-06T11:12:20.272Z,37.38
2022-09-06T11:13:39.114Z,37.45
2022-09-06T11:14:58.574Z,37.57
2022-09-06T11:16:17.344Z,37.62
2022-09-06T11:17:35.136Z,37.51
2022-09-06T11:18:54.637Z,37.31
2022-09-06T11:20:12.097Z,37.30
2022-09-06T11:21:31.487Z,37.42
2022-09-06T11:22:49.362Z,37.58
2022-09-06T11:24:07.937Z,37.62
2022-09-06T11:25:30.346Z,37.70
2022-09-06T11:28:39.369Z,37.80
2022-09-06T11:29:56.871Z,37.88
2022-09-06T11:32:38.218Z,38.29
2022-09-06T11:34:01.483Z,38.37
2022-09-06T11:35:18.973Z,38.17
2022-09-06T11:36:36.923Z,38.06
2022-09-06T11:37:54.401Z,37.94
2022-09-06T11:39:16.216Z,38.07
2022-09-06T11:40:36.451Z,38.28
2022-09-06T11:41:53.866Z,38.14
2022-09-06T11:43:14.547Z,38.01
2022-09-06T11:44:31.986Z,37.69
2022-09-06T11:45:51.996Z,37.42
2022-09-06T11:47:10.093Z,37.30
2022-09-06T11:48:29.198Z,37.01
2022-09-06T11:51:40.751Z,36.78
2022-09-06T11:53:02.091Z,36.75
2022-09-06T11:54:20.967Z,36.97
2022-09-06T11:55:38.501Z,37.23
2022-09-06T11:56:58.032Z,37.37
2022-09-06T11:58:17.073Z,37.51
2022-09-06T11:59:33.641Z,37.51
2022-09-06T12:00:52.647Z,37.55
2022-09-06T12:02:24.206Z,37.37
2022-09-06T12:05:32.717Z,37.51
2022-09-06T12:06:49.348Z,37.44
2022-09-06T12:08:06.784Z,37.47
2022-09-06T12:09:24.569Z,37.62
2022-09-06T12:10:42.556Z,37.79
2022-09-06T12:12:03.461Z,37.72
2022-09-06T12:13:24.295Z,37.89
2022-09-06T12:14:42.622Z,37.82
2022-09-06T12:16:08.776Z,37.54
2022-09-06T12:17:26.264Z,37.35
2022-09-06T12:18:47.315Z,37.15
2022-09-06T12:20:04.729Z,36.82
2022-09-06T12:21:22.058Z,36.93
2022-09-06T12:22:40.666Z,37.16
2022-09-06T12:23:57.992Z,37.22
2022-09-06T12:25:15.527Z,37.16
2022-09-06T12:26:32.885Z,37.23
2022-09-06T12:27:50.236Z,37.15
2022-09-06T12:29:09.955Z,37.27
2022-09-06T12:30:28.867Z,37.38
2022-09-06T12:31:47.726Z,37.60
2022-09-06T12:33:05.188Z,37.77
2022-09-06T12:34:23.530Z,37.96
2022-09-06T12:35:56.899Z,38.29
2022-09-06T12:37:03.451Z,38.54
2022-09-06T12:38:21.788Z,38.54
2022-09-06T12:39:41.230Z,38.44
2022-09-06T12:40:58.754Z,38.33
2022-09-06T12:42:17.073Z,38.17
2022-09-06T12:43:34.759Z,38.23
2022-09-06T12:44:53.114Z,38.37
2022-09-06T12:46:13.550Z,38.59
2022-09-06T12:47:30.276Z,38.59
2022-09-06T12:48:49.657Z,38.57
2022-09-06T12:50:08.072Z,38.60
2022-09-06T12:51:25.469Z,38.63
2022-09-06T12:52:43.873Z,38.62
2022-09-06T12:54:01.468Z,38.60
2022-09-06T12:55:20.903Z,38.57
2022-09-06T12:56:38.251Z,38.63
2022-09-06T12:57:56.010Z,38.76
2022-09-06T12:59:14.382Z,38.82
2022-09-06T13:00:36.143Z,38.62
2022-09-06T13:01:53.644Z,38.45
2022-09-06T13:03:12.079Z,38.36
2022-09-06T13:04:29.414Z,38.57
2022-09-06T13:05:48.256Z,38.76
2022-09-06T13:07:05.602Z,38.79
2022-09-06T13:08:24.009Z,38.73
2022-09-06T13:09:42.857Z,38.32
2022-09-06T13:11:01.187Z,38.04
2022-09-06T13:12:19.508Z,37.96
2022-09-06T13:13:37.860Z,38.07
2022-09-06T13:14:56.210Z,37.73
2022-09-06T13:16:13.668Z,37.39
2022-09-06T13:17:32.249Z,37.32
2022-09-06T13:18:50.592Z,37.22
2022-09-06T13:20:08.942Z,37.27
2022-09-06T13:21:27.564Z,37.42
2022-09-06T13:22:44.941Z,37.50
2022-09-06T13:24:04.351Z,37.49
2022-09-06T13:27:13.171Z,37.64
2022-09-06T13:28:32.063Z,37.80
2022-09-06T13:29:50.376Z,37.87
2022-09-06T13:31:08.755Z,37.99
2022-09-06T13:32:26.382Z,38.13
2022-09-06T13:33:44.795Z,38.13
2022-09-06T13:35:03.119Z,38.20
2022-09-06T13:36:21.496Z,37.94
2022-09-06T13:37:38.817Z,37.70
2022-09-06T13:38:56.627Z,37.76
2022-09-06T13:42:06.518Z,37.89
2022-09-06T13:43:23.860Z,38.04
2022-09-06T13:44:42.539Z,38.11
2022-09-06T13:45:59.877Z,38.28
2022-09-06T13:47:17.236Z,38.17
2022-09-06T13:48:35.591Z,37.87
2022-09-06T13:49:52.944Z,37.89
2022-09-06T13:51:12.064Z,37.87
2022-09-06T13:52:29.412Z,37.55
2022-09-06T13:53:46.726Z,37.19
2022-09-06T13:55:05.101Z,36.96
2022-09-06T13:56:22.425Z,36.85
2022-09-06T13:57:40.547Z,37.07
2022-09-06T13:58:58.370Z,37.04
2022-09-06T14:00:16.977Z,37.16
2022-09-06T14:01:36.630Z,37.30
2022-09-06T14:04:44.761Z,37.51
2022-09-06T14:06:03.122Z,37.67
2022-09-06T14:07:22.020Z,37.55
2022-09-06T14:10:31.139Z,37.30
2022-09-06T14:11:49.771Z,37.37
2022-09-06T14:13:07.096Z,37.27
2022-09-06T14:14:25.935Z,37.17
2022-09-06T14:15:44.855Z,36.91
2022-09-06T14:17:03.213Z,37.00
2022-09-06T14:18:21.875Z,36.89
2022-09-06T14:19:40.705Z,36.98
2022-09-06T14:20:58.037Z,37.04
2022-09-06T14:22:16.900Z,37.13
2022-09-06T14:23:34.229Z,37.31
2022-09-06T14:24:51.829Z,37.45
2022-09-06T14:26:10.235Z,37.47
2022-09-06T14:27:29.086Z,37.50
2022-09-06T14:28:46.440Z,37.45
2022-09-06T14:30:03.817Z,37.45
2022-09-06T14:31:20.544Z,37.42
2022-09-06T14:32:39.122Z,37.41
2022-09-06T14:33:57.506Z,37.41
2022-09-06T14:35:15.846Z,37.42
2022-09-06T14:36:34.134Z,37.42
2022-09-06T14:37:53.351Z,37.45
2022-09-06T14:39:11.708Z,37.44
2022-09-06T14:40:30.006Z,37.41
2022-09-06T14:41:47.357Z,37.39
2022-09-06T14:43:04.747Z,37.17
2022-09-06T14:44:21.428Z,37.03
2022-09-06T14:45:39.770Z,36.89
2022-09-06T14:46:58.130Z,36.76
2022-09-06T14:48:16.999Z,36.51
2022-09-06T14:49:35.361Z,36.47
2022-09-06T14:50:52.001Z,36.54
2022-09-06T14:52:10.322Z,36.61
2022-09-06T14:53:39.931Z,36.49
2022-09-06T14:54:51.909Z,36.33
2022-09-06T14:56:10.238Z,36.03
2022-09-06T14:57:27.140Z,35.85
2022-09-06T14:58:45.498Z,35.85
2022-09-06T15:00:03.869Z,35.75
2022-09-06T15:01:22.311Z,35.69
2022-09-06T15:02:38.815Z,35.68
2022-09-06T15:03:57.209Z,35.70
2022-09-06T15:05:15.566Z,35.75
2022-09-06T15:06:33.933Z,35.83
2022-09-06T15:07:51.230Z,35.81
2022-09-06T15:09:10.401Z,35.87
2022-09-06T15:10:28.762Z,35.88
2022-09-06T15:11:47.043Z,35.90
2022-09-06T15:13:05.373Z,35.84
2022-09-06T15:14:23.726Z,35.70
2022-09-06T15:15:42.379Z,35.56
2022-09-06T15:17:00.692Z,35.28
2022-09-06T15:18:17.995Z,35.17
2022-09-06T15:19:36.356Z,35.09
2022-09-06T15:20:55.214Z,34.98
2022-09-06T15:22:11.969Z,34.98
2022-09-06T15:23:30.353Z,35.07
2022-09-06T15:24:48.638Z,35.13
2022-09-06T15:26:06.980Z,35.14
2022-09-06T15:27:23.390Z,35.04
2022-09-06T15:28:42.006Z,34.95
2022-09-06T15:30:00.329Z,34.83
2022-09-06T15:31:18.704Z,34.73
2022-09-06T15:32:37.064Z,34.60
2022-09-06T15:33:55.392Z,34.59
2022-09-06T15:35:12.045Z,34.62
2022-09-06T15:36:28.415Z,34.62
2022-09-06T15:37:46.786Z,34.56
2022-09-06T15:39:05.126Z,34.29
2022-09-06T15:40:21.527Z,34.16
2022-09-06T15:41:39.619Z,34.07
2022-09-06T15:42:56.031Z,34.03
2022-09-06T15:44:14.366Z,33.98
2022-09-06T15:45:30.732Z,33.92
2022-09-06T15:46:47.110Z,33.85
2022-09-06T15:48:05.750Z,33.74
2022-09-06T15:49:27.479Z,33.66
2022-09-06T15:50:51.736Z,33.60
2022-09-06T15:52:09.413Z,33.55
2022-09-06T15:53:27.908Z,33.49
2022-09-06T15:54:44.569Z,33.49
2022-09-06T15:56:02.925Z,33.45
2022-09-06T15:57:20.284Z,33.39
2022-09-06T15:58:38.666Z,33.32
2022-09-06T15:59:55.977Z,33.24
2022-09-06T16:01:12.685Z,33.22
2022-09-06T16:02:31.091Z,33.10
2022-09-06T16:03:49.000Z,32.95
2022-09-06T16:05:07.301Z,32.82
2022-09-06T16:06:27.794Z,32.72
2022-09-06T16:07:47.001Z,32.64
2022-09-06T16:09:05.333Z,32.53
2022-09-06T16:10:23.638Z,32.54
2022-09-06T16:11:41.962Z,32.54
2022-09-06T16:13:00.543Z,32.46
2022-09-06T16:14:18.903Z,32.39
2022-09-06T16:15:37.236Z,32.41
2022-09-06T16:16:55.585Z,32.45
2022-09-06T16:18:13.887Z,32.51
2022-09-06T16:19:32.544Z,32.50
2022-09-06T16:20:48.907Z,32.42
2022-09-06T16:22:07.258Z,32.38
2022-09-06T16:23:25.640Z,32.38
2022-09-06T16:24:43.949Z,32.32
2022-09-06T16:26:02.541Z,32.20
2022-09-06T16:27:20.891Z,32.06
2022-09-06T16:28:39.249Z,32.01
2022-09-06T16:29:57.573Z,31.95
2022-09-06T16:31:15.957Z,31.95
2022-09-06T16:32:32.603Z,31.97
2022-09-06T16:33:51.036Z,31.99
2022-09-06T16:35:07.546Z,31.98
2022-09-06T16:36:25.888Z,31.98
2022-09-06T16:37:44.236Z,31.95
2022-09-06T16:39:02.858Z,31.89
2022-09-06T16:40:21.187Z,31.78
2022-09-06T16:41:38.988Z,31.74
2022-09-06T16:42:56.811Z,31.66
2022-09-06T16:44:15.160Z,31.64
2022-09-06T16:45:33.789Z,31.57
2022-09-06T16:46:52.115Z,31.54
2022-09-06T16:48:10.459Z,31.46
2022-09-06T16:49:28.772Z,31.39
2022-09-06T16:50:47.173Z,31.38
2022-09-06T16:52:03.834Z,31.30
2022-09-06T16:53:22.310Z,31.24
2022-09-06T16:54:40.574Z,31.22
2022-09-06T16:55:58.965Z,31.20
2022-09-06T16:57:17.275Z,31.23
2022-09-06T16:58:35.625Z,31.26
2022-09-06T16:59:53.936Z,31.26
2022-09-06T17:01:12.333Z,31.24
2022-09-06T17:02:30.768Z,31.19
2022-09-06T17:03:48.838Z,31.17
2022-09-06T17:05:07.160Z,31.15
2022-09-06T17:06:23.539Z,31.10
2022-09-06T17:07:40.891Z,31.05
2022-09-06T17:08:59.233Z,31.01
2022-09-06T17:10:16.802Z,30.93
2022-09-06T17:11:35.163Z,30.80
2022-09-06T17:12:53.502Z,30.71
2022-09-06T17:14:11.860Z,30.62
2022-09-06T17:15:29.145Z,30.60
2022-09-06T17:16:46.803Z,30.58
2022-09-06T17:18:04.217Z,30.51
2022-09-06T17:19:22.586Z,30.43
2022-09-06T17:20:39.886Z,30.36
2022-09-06T17:21:58.271Z,30.29
2022-09-06T17:23:19.700Z,30.22
2022-09-06T17:24:38.138Z,30.17
2022-09-06T17:25:56.460Z,30.07
2022-09-06T17:27:14.788Z,30.00
2022-09-06T17:28:33.131Z,29.93
2022-09-06T17:29:52.280Z,29.84
2022-09-06T17:31:10.636Z,29.77
2022-09-06T17:32:29.003Z,29.65
2022-09-06T17:33:46.353Z,29.56
2022-09-06T17:35:04.693Z,29.41
2022-09-06T17:36:22.254Z,29.29
2022-09-06T17:37:40.623Z,29.19
2022-09-06T17:38:58.976Z,29.15
2022-09-06T17:40:17.315Z,29.07
2022-09-06T17:41:35.179Z,29.04
2022-09-06T17:42:53.812Z,28.98